Time;durP1;ratioP1;P1;durP2;ratioP2;P2;SDS_P1;SDS_P2;PMS_P1;PMS_P2;Temp;Humidity;BMP_temperature;BMP_pressure;BME280_temperature;BME280_humidity;BME280_pressure;Samples;Min_cycle;Max_cycle;Signal;HPM_P1;HPM_P2
2021/09/06 09:46:06;;;;;;;6.03;4.07;;;;;;;;;;5084956;27;20461;-75
2021/09/06 09:48:31;;;;;;;5.28;3.88;;;;;;;;;;5056632;28;20417;-69
2021/09/06 09:50:57;;;;;;;6.15;4.40;;;;;;;;;;5058701;28;20051;-70
2021/09/06 09:53:22;;;;;;;5.20;4.07;;;;;;;;;;5056244;28;20025;-68
2021/09/06 09:55:48;;;;;;;6.15;4.38;;;;;;;;;;5050811;28;83830;-68
2021/09/06 09:58:16;;;;;;;6.22;4.95;;;;;;;;;;5056393;28;20332;-71
2021/09/06 10:02:37;;;;;;;4.28;3.47;;;;;;;;;;5024199;28;84216;-73
2021/09/06 10:05:49;;;;;;;5.75;3.90;;;;;;;;;;4991632;27;79951;-69
2021/09/06 10:08:16;;;;;;;6.50;4.57;;;;;;;;;;4994869;28;20033;-70
2021/09/06 10:10:42;;;;;;;6.10;3.88;;;;;;;;;;4996370;28;20053;-72
2021/09/06 10:13:11;;;;;;;6.18;4.55;;;;;;;;;;5000596;28;20038;-71
2021/09/06 10:15:39;;;;;;;14.68;4.18;;;;;;;;;;4996584;28;20121;-70
2021/09/06 10:18:20;;;;;;;8.77;3.38;;;;;;;;;;4998369;28;20026;-70
2021/09/06 10:20:47;;;;;;;6.78;4.43;;;;;;;;;;4997204;28;20407;-71
2021/09/06 10:30:55;;;;;;;4.18;3.13;;;;;;;;;;5059138;28;20398;-58
2021/09/06 10:33:31;;;;;;;7.13;4.88;;;;;;;;;;5045012;28;20079;-58
2021/09/06 10:36:11;;;;;;;5.18;3.38;;;;;;;;;;5043925;28;20072;-58
2021/09/06 10:38:51;;;;;;;4.50;3.22;;;;;;;;;;5046183;28;20033;-58
2021/09/06 10:41:19;;;;;;;5.60;4.17;;;;;;;;;;5043359;28;20037;-58
2021/09/06 10:43:49;;;;;;;4.30;3.70;;;;;;;;;;5044416;28;20040;-58
2021/09/06 10:46:16;;;;;;;6.63;4.70;;;;;;;;;;5044273;28;20033;-58
2021/09/06 10:48:41;;;;;;;5.80;4.78;;;;;;;;;;5045157;28;20045;-58
2021/09/06 10:51:07;;;;;;;7.20;5.70;;;;;;;;;;5045696;28;20041;-58
2021/09/06 10:53:33;;;;;;;5.25;4.20;;;;;;;;;;5044816;28;20056;-58
2021/09/06 10:55:59;;;;;;;5.90;5.00;;;;;;;;;;5046060;28;20033;-58
2021/09/06 10:58:27;;;;;;;7.20;5.30;;;;;;;;;;5026670;28;20022;-58
2021/09/06 11:00:56;;;;;;;5.25;4.38;;;;;;;;;;5044320;28;20064;-58
2021/09/06 11:03:24;;;;;;;5.68;4.68;;;;;;;;;;5044159;28;20446;-58
2021/09/06 11:05:55;;;;;;;5.25;4.50;;;;;;;;;;5045375;28;20127;-58
2021/09/06 11:08:28;;;;;;;4.65;3.83;;;;;;;;;;5045277;28;20029;-58
2021/09/06 11:10:56;;;;;;;4.20;3.80;;;;;;;;;;5045179;28;20030;-58
2021/09/06 11:13:22;;;;;;;4.32;3.15;;;;;;;;;;5038347;28;20045;-58
2021/09/06 11:15:48;;;;;;;5.55;4.30;;;;;;;;;;5043853;28;20065;-58
2021/09/06 11:18:13;;;;;;;5.45;4.85;;;;;;;;;;5044867;28;20065;-58
2021/09/06 11:20:39;;;;;;;5.65;4.30;;;;;;;;;;5044823;28;20032;-58
2021/09/06 11:23:09;;;;;;;4.22;3.53;;;;;;;;;;5040487;28;20474;-59
2021/09/06 11:25:39;;;;;;;7.55;4.18;;;;;;;;;;5041924;28;20033;-58
2021/09/06 11:28:15;;;;;;;6.20;3.85;;;;;;;;;;5041443;28;20030;-59
2021/09/06 11:30:43;;;;;;;6.30;3.25;;;;;;;;;;5042039;28;20046;-59
2021/09/06 11:33:10;;;;;;;5.15;4.40;;;;;;;;;;5044155;28;20029;-59
2021/09/06 11:35:37;;;;;;;5.82;4.82;;;;;;;;;;5041528;28;20037;-59
2021/09/06 11:38:04;;;;;;;4.53;3.88;;;;;;;;;;5038794;28;20065;-60
2021/09/06 11:40:30;;;;;;;4.55;4.00;;;;;;;;;;5034391;28;20052;-59
2021/09/06 11:42:57;;;;;;;6.25;4.82;;;;;;;;;;5027262;28;20045;-59
2021/09/06 11:45:23;;;;;;;8.20;4.55;;;;;;;;;;5029866;28;20088;-59
2021/09/06 11:47:50;;;;;;;6.00;4.22;;;;;;;;;;5029015;28;20454;-59
2021/09/06 11:50:16;;;;;;;9.15;5.35;;;;;;;;;;5023793;28;20048;-58
2021/09/06 11:52:44;;;;;;;6.57;4.63;;;;;;;;;;5028992;28;20538;-58
2021/09/06 11:55:20;;;;;;;4.93;3.97;;;;;;;;;;5030215;28;20060;-59
2021/09/06 11:57:46;;;;;;;4.85;4.28;;;;;;;;;;5027725;28;20044;-58
2021/09/06 12:00:17;;;;;;;5.00;4.30;;;;;;;;;;5030480;28;20745;-58
2021/09/06 12:02:55;;;;;;;4.45;4.03;;;;;;;;;;5029988;28;20061;-59
2021/09/06 12:05:21;;;;;;;5.00;4.03;;;;;;;;;;5028686;28;20065;-59
2021/09/06 12:07:51;;;;;;;3.63;3.30;;;;;;;;;;5030648;28;20506;-59
2021/09/06 12:10:31;;;;;;;5.32;4.82;;;;;;;;;;5046507;28;20366;-59
2021/09/06 12:13:19;;;;;;;3.75;3.15;;;;;;;;;;5030529;28;20045;-59
2021/09/06 12:15:59;;;;;;;3.92;3.53;;;;;;;;;;5027895;28;20037;-58
2021/09/06 12:18:40;;;;;;;;;;;;;;;;;;5031552;28;20029;-59
2021/09/06 12:21:18;;;;;;;4.55;4.13;;;;;;;;;;5031320;28;19913;-58
2021/09/06 12:23:49;;;;;;;4.78;4.25;;;;;;;;;;5028466;28;20049;-58
2021/09/06 12:26:16;;;;;;;5.57;5.05;;;;;;;;;;5028374;28;20256;-58
2021/09/06 12:28:57;;;;;;;4.55;4.15;;;;;;;;;;5028761;28;20030;-58
2021/09/06 12:31:24;;;;;;;4.32;3.92;;;;;;;;;;5029328;28;20034;-59
2021/09/06 12:33:49;;;;;;;4.35;3.85;;;;;;;;;;5029658;28;20477;-58
2021/09/06 12:36:16;;;;;;;4.57;3.85;;;;;;;;;;5030808;28;20068;-58
2021/09/06 12:38:42;;;;;;;5.65;4.20;;;;;;;;;;5029831;28;20064;-59
2021/09/06 12:41:07;;;;;;;5.45;4.20;;;;;;;;;;5027645;28;20037;-59
2021/09/06 12:43:33;;;;;;;3.72;3.03;;;;;;;;;;5023450;28;20623;-58
2021/09/06 12:45:58;;;;;;;4.53;3.70;;;;;;;;;;5028012;28;20696;-58
2021/09/06 12:48:25;;;;;;;3.85;2.83;;;;;;;;;;5028483;28;20418;-58
2021/09/06 12:50:51;;;;;;;4.68;3.75;;;;;;;;;;5025850;28;20037;-58
2021/09/06 12:53:17;;;;;;;4.53;4.13;;;;;;;;;;5027501;28;20029;-58
2021/09/06 12:55:43;;;;;;;4.88;4.40;;;;;;;;;;5027406;28;20341;-58
2021/09/06 12:58:08;;;;;;;4.40;4.00;;;;;;;;;;5027959;28;20025;-58
2021/09/06 13:00:34;;;;;;;3.63;3.00;;;;;;;;;;5028690;28;20071;-58
2021/09/06 13:03:01;;;;;;;5.32;3.97;;;;;;;;;;5029404;28;20136;-58
2021/09/06 13:05:27;;;;;;;4.82;4.32;;;;;;;;;;5029686;28;20037;-59
2021/09/06 13:07:52;;;;;;;4.22;3.63;;;;;;;;;;5029285;28;20059;-59
2021/09/06 13:10:18;;;;;;;5.13;3.47;;;;;;;;;;5029640;28;20120;-58
2021/09/06 13:12:43;;;;;;;4.78;4.18;;;;;;;;;;5031118;28;20090;-58
2021/09/06 13:15:10;;;;;;;3.88;3.40;;;;;;;;;;5029800;28;20032;-58
2021/09/06 13:17:36;;;;;;;3.67;3.22;;;;;;;;;;5029807;28;20504;-58
2021/09/06 13:20:02;;;;;;;4.50;3.88;;;;;;;;;;5029912;28;20041;-58
2021/09/06 13:22:28;;;;;;;6.13;3.67;;;;;;;;;;5029851;28;20103;-59
2021/09/06 13:24:53;;;;;;;4.95;4.53;;;;;;;;;;5023811;28;20029;-59
2021/09/06 13:27:19;;;;;;;7.95;3.80;;;;;;;;;;5029066;28;20092;-58
2021/09/06 13:29:44;;;;;;;3.80;3.40;;;;;;;;;;5028519;28;20033;-58
2021/09/06 13:32:10;;;;;;;5.65;4.53;;;;;;;;;;5028626;28;20041;-58
2021/09/06 13:34:36;;;;;;;4.07;3.67;;;;;;;;;;5044642;28;20504;-58
2021/09/06 13:37:03;;;;;;;4.30;3.88;;;;;;;;;;5028557;28;20055;-58
2021/09/06 13:39:28;;;;;;;4.75;4.15;;;;;;;;;;5027277;28;20103;-59
2021/09/06 13:41:54;;;;;;;5.78;4.10;;;;;;;;;;5029774;28;20510;-58
2021/09/06 13:44:19;;;;;;;5.05;3.88;;;;;;;;;;5029443;28;20442;-58
2021/09/06 13:46:44;;;;;;;6.60;4.25;;;;;;;;;;5025158;28;20043;-59
2021/09/06 13:49:12;;;;;;;4.03;3.60;;;;;;;;;;5027560;28;20455;-58
2021/09/06 13:51:39;;;;;;;4.72;4.25;;;;;;;;;;5011293;28;20454;-58
2021/09/06 13:54:05;;;;;;;4.28;3.88;;;;;;;;;;5028293;28;20095;-59
2021/09/06 13:56:35;;;;;;;4.60;4.00;;;;;;;;;;5027462;28;20041;-58
2021/09/06 13:59:01;;;;;;;3.45;3.00;;;;;;;;;;5028756;28;20045;-58
2021/09/06 14:01:26;;;;;;;3.72;3.08;;;;;;;;;;5028218;28;20033;-58
2021/09/06 14:03:52;;;;;;;5.50;3.88;;;;;;;;;;5026168;28;20041;-58
2021/09/06 14:06:17;;;;;;;4.93;3.85;;;;;;;;;;5027224;28;20411;-58
2021/09/06 14:08:42;;;;;;;3.80;3.33;;;;;;;;;;5027323;28;20041;-59
2021/09/06 14:11:08;;;;;;;4.20;3.70;;;;;;;;;;5029075;28;20044;-59
2021/09/06 14:13:34;;;;;;;4.22;3.78;;;;;;;;;;5029320;28;20403;-58
2021/09/06 14:15:59;;;;;;;4.97;3.75;;;;;;;;;;5028366;28;20065;-58
2021/09/06 14:18:25;;;;;;;4.05;3.22;;;;;;;;;;5027728;28;20037;-58
2021/09/06 14:20:50;;;;;;;4.93;3.53;;;;;;;;;;5029022;28;20071;-58
2021/09/06 14:23:16;;;;;;;3.63;2.95;;;;;;;;;;5028818;28;20065;-58
2021/09/06 14:25:43;;;;;;;3.63;3.00;;;;;;;;;;5028637;28;20048;-58
2021/09/06 14:28:08;;;;;;;3.78;2.88;;;;;;;;;;5027600;28;20694;-58
2021/09/06 14:30:34;;;;;;;4.13;3.22;;;;;;;;;;5029067;28;20037;-58
2021/09/06 14:33:00;;;;;;;4.53;3.17;;;;;;;;;;5024569;28;20033;-58
2021/09/06 14:35:26;;;;;;;4.43;3.70;;;;;;;;;;5028386;28;20099;-58
2021/09/06 14:37:51;;;;;;;3.42;2.75;;;;;;;;;;5024139;28;20547;-58
2021/09/06 14:40:17;;;;;;;4.25;3.10;;;;;;;;;;5022797;28;20079;-58
2021/09/06 14:42:42;;;;;;;4.10;3.15;;;;;;;;;;5027349;28;20418;-58
2021/09/06 14:45:08;;;;;;;4.78;3.30;;;;;;;;;;5027546;28;20033;-58
2021/09/06 14:47:33;;;;;;;5.97;3.30;;;;;;;;;;5027884;28;20038;-58
2021/09/06 14:50:01;;;;;;;3.78;2.72;;;;;;;;;;5025734;28;20026;-56
2021/09/06 14:52:29;;;;;;;6.00;3.05;;;;;;;;;;5022495;28;20069;-59
2021/09/06 14:54:55;;;;;;;4.25;3.15;;;;;;;;;;5021532;28;20030;-58
2021/09/06 14:57:21;;;;;;;4.85;3.22;;;;;;;;;;5022733;28;20112;-59
2021/09/06 14:59:47;;;;;;;4.22;2.80;;;;;;;;;;5024691;28;20017;-59
2021/09/06 15:02:14;;;;;;;4.07;3.20;;;;;;;;;;5025361;28;20045;-59
2021/09/06 15:04:40;;;;;;;4.32;3.40;;;;;;;;;;5024512;28;20086;-56
2021/09/06 15:07:05;;;;;;;4.70;2.88;;;;;;;;;;5022505;28;20037;-56
2021/09/06 15:09:31;;;;;;;3.88;2.88;;;;;;;;;;5025164;28;20045;-56
2021/09/06 15:11:56;;;;;;;4.35;3.17;;;;;;;;;;5026839;28;20494;-56
2021/09/06 15:14:23;;;;;;;4.28;3.63;;;;;;;;;;5026679;28;20183;-56
2021/09/06 15:16:53;;;;;;;5.20;3.38;;;;;;;;;;5028882;28;20120;-56
2021/09/06 15:19:19;;;;;;;4.53;3.17;;;;;;;;;;5030255;28;20033;-56
2021/09/06 15:21:44;;;;;;;4.15;3.17;;;;;;;;;;5028663;28;20648;-56
2021/09/06 15:24:10;;;;;;;4.70;3.13;;;;;;;;;;5030019;28;20029;-56
2021/09/06 15:26:38;;;;;;;3.63;2.33;;;;;;;;;;5034982;28;20152;-56
2021/09/06 15:29:03;;;;;;;3.40;2.78;;;;;;;;;;5044042;28;20029;-56
2021/09/06 15:31:39;;;;;;;4.00;2.80;;;;;;;;;;5027827;28;20034;-56
2021/09/06 15:34:04;;;;;;;4.55;3.08;;;;;;;;;;5025222;28;20029;-56
2021/09/06 15:36:31;;;;;;;5.65;3.50;;;;;;;;;;5029798;28;20469;-56
2021/09/06 15:39:04;;;;;;;3.35;2.28;;;;;;;;;;5030988;28;20091;-56
2021/09/06 15:41:35;;;;;;;3.90;2.83;;;;;;;;;;5030044;28;20040;-56
2021/09/06 15:44:00;;;;;;;3.60;2.95;;;;;;;;;;5026742;28;20033;-56
2021/09/06 15:46:26;;;;;;;2.97;2.38;;;;;;;;;;5029177;28;20101;-57
2021/09/06 15:48:51;;;;;;;2.90;2.47;;;;;;;;;;5030304;28;20404;-56
2021/09/06 15:51:17;;;;;;;4.32;3.25;;;;;;;;;;5030881;28;20107;-56
2021/09/06 15:53:43;;;;;;;3.67;2.70;;;;;;;;;;5026997;28;20044;-56
2021/09/06 15:56:09;;;;;;;4.20;3.05;;;;;;;;;;5029222;28;20025;-56
2021/09/06 15:58:34;;;;;;;4.10;2.47;;;;;;;;;;5031423;28;20347;-56
2021/09/06 16:01:00;;;;;;;3.53;2.67;;;;;;;;;;5029685;28;20037;-56
2021/09/06 16:03:25;;;;;;;4.22;2.95;;;;;;;;;;5030184;28;20048;-56
2021/09/06 16:05:51;;;;;;;5.13;3.78;;;;;;;;;;5030784;28;20045;-56
2021/09/06 16:08:16;;;;;;;3.22;2.47;;;;;;;;;;5031228;28;20045;-56
2021/09/06 16:10:42;;;;;;;4.22;2.75;;;;;;;;;;5030623;28;20045;-56
2021/09/06 16:13:07;;;;;;;3.80;2.83;;;;;;;;;;5027077;28;20414;-56
2021/09/06 16:15:33;;;;;;;4.43;3.50;;;;;;;;;;5029859;28;20177;-56
2021/09/06 16:17:58;;;;;;;8.00;3.42;;;;;;;;;;5030880;28;20386;-56
2021/09/06 16:20:24;;;;;;;3.13;2.33;;;;;;;;;;5028891;28;20037;-59
2021/09/06 16:22:49;;;;;;;3.90;3.05;;;;;;;;;;5030339;28;20099;-59
2021/09/06 16:25:15;;;;;;;4.30;3.33;;;;;;;;;;5029913;28;20052;-59
2021/09/06 16:27:41;;;;;;;3.33;2.67;;;;;;;;;;5028865;28;20044;-58
2021/09/06 16:30:08;;;;;;;3.67;2.47;;;;;;;;;;5028927;28;20025;-59
2021/09/06 16:32:34;;;;;;;3.38;2.50;;;;;;;;;;5027529;28;20061;-59
2021/09/06 16:34:59;;;;;;;4.93;3.33;;;;;;;;;;5030147;28;20537;-58
2021/09/06 16:37:27;;;;;;;3.90;2.78;;;;;;;;;;5028352;28;20344;-60
2021/09/06 16:39:52;;;;;;;4.03;3.20;;;;;;;;;;5026942;28;20443;-59
2021/09/06 16:42:18;;;;;;;3.65;2.80;;;;;;;;;;5028110;28;20037;-58
2021/09/06 16:44:43;;;;;;;4.07;3.17;;;;;;;;;;5024730;28;20113;-58
2021/09/06 16:47:09;;;;;;;4.57;3.25;;;;;;;;;;5023836;28;20045;-58
2021/09/06 16:49:34;;;;;;;8.38;3.03;;;;;;;;;;5027274;28;20067;-58
2021/09/06 16:52:00;;;;;;;4.47;2.92;;;;;;;;;;5027359;28;20029;-59
2021/09/06 16:54:25;;;;;;;3.28;2.30;;;;;;;;;;5025530;28;20463;-58
2021/09/06 16:56:51;;;;;;;4.18;2.95;;;;;;;;;;5028307;28;20026;-58
2021/09/06 16:59:16;;;;;;;4.68;3.22;;;;;;;;;;5030737;28;20025;-58
2021/09/06 17:01:41;;;;;;;3.67;2.63;;;;;;;;;;5024370;28;20033;-59
2021/09/06 17:04:09;;;;;;;3.15;2.38;;;;;;;;;;5029380;28;20103;-58
2021/09/06 17:06:40;;;;;;;4.05;3.42;;;;;;;;;;5028162;28;20029;-59
2021/09/06 17:09:06;;;;;;;4.80;3.45;;;;;;;;;;5028464;28;20076;-59
2021/09/06 17:11:31;;;;;;;5.35;3.40;;;;;;;;;;5028798;28;20034;-58
2021/09/06 17:13:57;;;;;;;3.95;3.42;;;;;;;;;;5026659;28;20069;-58
2021/09/06 17:16:22;;;;;;;3.25;2.83;;;;;;;;;;5027246;28;20041;-58
2021/09/06 17:18:48;;;;;;;5.05;3.22;;;;;;;;;;5028485;28;20072;-58
2021/09/06 17:21:13;;;;;;;6.05;3.55;;;;;;;;;;5033258;28;20100;-58
2021/09/06 17:23:39;;;;;;;5.32;3.55;;;;;;;;;;5028965;28;20091;-59
2021/09/06 17:26:07;;;;;;;4.90;3.42;;;;;;;;;;5027416;28;20048;-59
2021/09/06 17:28:33;;;;;;;5.10;4.18;;;;;;;;;;5028010;28;20029;-58
2021/09/06 17:30:58;;;;;;;3.97;3.50;;;;;;;;;;5023162;28;20045;-59
2021/09/06 17:33:24;;;;;;;4.32;3.80;;;;;;;;;;5028666;28;20123;-59
2021/09/06 17:35:49;;;;;;;4.47;4.07;;;;;;;;;;5025344;28;20472;-58
2021/09/06 17:38:15;;;;;;;5.70;4.70;;;;;;;;;;5042300;28;20132;-60
2021/09/06 17:40:41;;;;;;;5.88;5.38;;;;;;;;;;5028091;28;20098;-58
2021/09/06 17:43:06;;;;;;;6.80;5.82;;;;;;;;;;5027000;28;20072;-59
2021/09/06 17:45:31;;;;;;;6.45;5.85;;;;;;;;;;5027036;28;20056;-58
2021/09/06 17:47:57;;;;;;;6.07;5.57;;;;;;;;;;5027091;28;20120;-58
2021/09/06 17:50:22;;;;;;;5.80;5.13;;;;;;;;;;5025244;28;20029;-58
2021/09/06 17:52:48;;;;;;;6.70;5.85;;;;;;;;;;5027860;28;20051;-58
2021/09/06 17:55:13;;;;;;;5.97;4.90;;;;;;;;;;5032373;28;20106;-58
2021/09/06 17:57:40;;;;;;;6.10;5.50;;;;;;;;;;5025814;28;20041;-58
2021/09/06 18:00:06;;;;;;;6.57;5.97;;;;;;;;;;5025098;28;20036;-58
2021/09/06 18:02:31;;;;;;;6.97;6.32;;;;;;;;;;5026995;28;20124;-58
2021/09/06 18:04:57;;;;;;;7.22;6.63;;;;;;;;;;5025856;28;20117;-58
2021/09/06 18:07:23;;;;;;;6.00;5.50;;;;;;;;;;5028575;28;20041;-58
2021/09/06 18:09:48;;;;;;;7.50;6.90;;;;;;;;;;5028436;28;20072;-58
2021/09/06 18:12:14;;;;;;;6.63;6.03;;;;;;;;;;5027633;28;20068;-58
2021/09/06 18:14:39;;;;;;;6.00;5.50;;;;;;;;;;5028624;28;20037;-58
2021/09/06 18:17:05;;;;;;;6.03;5.47;;;;;;;;;;5027542;28;20034;-57
2021/09/06 18:19:32;;;;;;;6.95;6.35;;;;;;;;;;5028521;28;20355;-56
2021/09/06 18:21:58;;;;;;;6.22;5.63;;;;;;;;;;5026023;28;20025;-58
2021/09/06 18:24:23;;;;;;;5.68;5.13;;;;;;;;;;5027710;28;20041;-58
2021/09/06 18:26:48;;;;;;;8.05;7.35;;;;;;;;;;5026298;28;20041;-57
2021/09/06 18:29:14;;;;;;;6.18;5.63;;;;;;;;;;5027874;28;20067;-58
2021/09/06 18:31:39;;;;;;;5.63;5.15;;;;;;;;;;5027370;28;20463;-58
2021/09/06 18:34:05;;;;;;;7.22;6.70;;;;;;;;;;5026242;28;20041;-58
2021/09/06 18:36:30;;;;;;;7.38;6.78;;;;;;;;;;5032402;28;20113;-58
2021/09/06 18:38:56;;;;;;;7.05;6.35;;;;;;;;;;5026609;28;20063;-58
2021/09/06 18:41:21;;;;;;;8.70;8.00;;;;;;;;;;5027636;28;20048;-58
2021/09/06 18:43:50;;;;;;;6.40;5.90;;;;;;;;;;5027282;28;20443;-58
2021/09/06 18:46:17;;;;;;;9.98;9.15;;;;;;;;;;5023351;28;20033;-57
2021/09/06 18:48:42;;;;;;;9.43;8.52;;;;;;;;;;5024039;28;20022;-57
2021/09/06 18:51:08;;;;;;;10.48;9.55;;;;;;;;;;5027418;28;20113;-57
2021/09/06 18:53:33;;;;;;;9.35;8.55;;;;;;;;;;5029793;28;20147;-57
2021/09/06 18:55:59;;;;;;;11.63;10.73;;;;;;;;;;5029868;28;20033;-57
2021/09/06 18:58:25;;;;;;;10.68;9.77;;;;;;;;;;5031224;28;20092;-57
2021/09/06 19:00:51;;;;;;;8.88;8.07;;;;;;;;;;5030797;28;20051;-57
2021/09/06 19:03:16;;;;;;;10.18;9.30;;;;;;;;;;5029797;28;20128;-56
2021/09/06 19:05:41;;;;;;;9.85;8.85;;;;;;;;;;5031133;28;20037;-56
2021/09/06 19:08:07;;;;;;;8.45;7.60;;;;;;;;;;5031423;28;20061;-56
2021/09/06 19:10:34;;;;;;;7.55;6.80;;;;;;;;;;5031051;28;20025;-57
2021/09/06 19:13:00;;;;;;;7.10;6.47;;;;;;;;;;5031622;28;20046;-57
2021/09/06 19:15:28;;;;;;;7.47;6.22;;;;;;;;;;5031283;28;20029;-57
2021/09/06 19:17:53;;;;;;;7.75;7.05;;;;;;;;;;5031352;28;20025;-57
2021/09/06 19:20:19;;;;;;;7.88;7.07;;;;;;;;;;5030656;28;20032;-57
2021/09/06 19:22:44;;;;;;;6.22;5.35;;;;;;;;;;5031992;28;20160;-57
2021/09/06 19:25:10;;;;;;;5.88;5.10;;;;;;;;;;5031204;28;20112;-57
2021/09/06 19:27:37;;;;;;;6.38;4.88;;;;;;;;;;5029677;28;20496;-58
2021/09/06 19:30:04;;;;;;;4.97;4.07;;;;;;;;;;5031228;28;20041;-57
2021/09/06 19:32:30;;;;;;;4.85;4.35;;;;;;;;;;5029255;28;20108;-57
2021/09/06 19:34:55;;;;;;;5.25;4.05;;;;;;;;;;5030063;28;20112;-58
2021/09/06 19:37:20;;;;;;;5.22;4.15;;;;;;;;;;5030330;28;20048;-58
2021/09/06 19:39:46;;;;;;;5.63;4.35;;;;;;;;;;5031216;28;20025;-58
2021/09/06 19:42:11;;;;;;;5.18;4.32;;;;;;;;;;5030408;28;21563;-59
2021/09/06 19:44:37;;;;;;;7.68;6.63;;;;;;;;;;5030274;28;20052;-58
2021/09/06 19:47:02;;;;;;;6.30;5.70;;;;;;;;;;5031094;28;20109;-58
2021/09/06 19:49:31;;;;;;;7.20;4.88;;;;;;;;;;5031143;28;20025;-58
2021/09/06 19:51:56;;;;;;;5.80;5.20;;;;;;;;;;5029286;28;20034;-57
2021/09/06 19:54:22;;;;;;;9.45;4.65;;;;;;;;;;5030111;28;20144;-58
2021/09/06 19:56:47;;;;;;;5.28;4.07;;;;;;;;;;5031546;28;20045;-58
2021/09/06 19:59:12;;;;;;;6.43;4.35;;;;;;;;;;5029783;28;20041;-58
2021/09/06 20:01:39;;;;;;;7.40;5.00;;;;;;;;;;5030671;28;20120;-58
2021/09/06 20:04:05;;;;;;;5.95;5.35;;;;;;;;;;5030283;28;20083;-58
2021/09/06 20:06:30;;;;;;;7.45;5.93;;;;;;;;;;5030383;28;20033;-58
2021/09/06 20:08:56;;;;;;;5.38;4.78;;;;;;;;;;5029332;28;20073;-58
2021/09/06 20:11:21;;;;;;;8.48;6.07;;;;;;;;;;5031100;28;20303;-58
2021/09/06 20:13:48;;;;;;;6.30;5.50;;;;;;;;;;5030206;28;20431;-57
2021/09/06 20:16:13;;;;;;;6.20;4.78;;;;;;;;;;5027014;28;20052;-57
2021/09/06 20:18:39;;;;;;;4.57;4.10;;;;;;;;;;5028955;28;20470;-57
2021/09/06 20:21:04;;;;;;;3.72;2.88;;;;;;;;;;5029429;28;20032;-57
2021/09/06 20:23:29;;;;;;;6.65;4.03;;;;;;;;;;5029165;28;20033;-58
2021/09/06 20:25:55;;;;;;;7.20;5.63;;;;;;;;;;5029703;28;20041;-58
2021/09/06 20:28:21;;;;;;;6.65;4.82;;;;;;;;;;5027796;28;20065;-58
2021/09/06 20:30:46;;;;;;;5.63;4.80;;;;;;;;;;5029279;28;20045;-58
2021/09/06 20:33:12;;;;;;;4.78;4.22;;;;;;;;;;5029007;28;20089;-58
2021/09/06 20:35:37;;;;;;;4.82;4.20;;;;;;;;;;5026132;28;20033;-57
2021/09/06 20:38:03;;;;;;;5.95;4.38;;;;;;;;;;5021450;28;20509;-57
2021/09/06 20:40:28;;;;;;;4.20;3.65;;;;;;;;;;5025481;28;20099;-58
2021/09/06 20:42:54;;;;;;;4.20;3.67;;;;;;;;;;5027501;28;20029;-58
2021/09/06 20:45:19;;;;;;;5.07;3.50;;;;;;;;;;5024779;28;20029;-57
2021/09/06 20:47:45;;;;;;;9.15;4.75;;;;;;;;;;5026552;28;20033;-57
2021/09/06 20:50:11;;;;;;;5.85;4.65;;;;;;;;;;5026840;28;20464;-57
2021/09/06 20:52:36;;;;;;;5.85;4.28;;;;;;;;;;5024818;28;20033;-57
2021/09/06 20:55:03;;;;;;;4.13;2.85;;;;;;;;;;5026656;28;20038;-58
2021/09/06 20:57:28;;;;;;;5.97;4.32;;;;;;;;;;5026021;28;20086;-57
2021/09/06 20:59:54;;;;;;;4.70;3.58;;;;;;;;;;5021136;28;20033;-57
2021/09/06 21:02:19;;;;;;;4.95;4.05;;;;;;;;;;5027250;28;20080;-57
2021/09/06 21:04:45;;;;;;;7.22;3.97;;;;;;;;;;5024531;28;20196;-57
2021/09/06 21:07:10;;;;;;;7.22;4.32;;;;;;;;;;5025065;28;20884;-58
2021/09/06 21:09:36;;;;;;;5.05;3.90;;;;;;;;;;5007529;28;20037;-57
2021/09/06 21:12:01;;;;;;;5.28;3.70;;;;;;;;;;5030040;28;20101;-57
2021/09/06 21:14:26;;;;;;;5.40;3.42;;;;;;;;;;5024894;28;20063;-58
2021/09/06 21:16:52;;;;;;;6.72;4.05;;;;;;;;;;5026108;28;20680;-57
2021/09/06 21:19:17;;;;;;;4.82;3.25;;;;;;;;;;5026189;28;20470;-57
2021/09/06 21:21:43;;;;;;;3.08;2.42;;;;;;;;;;5028647;28;20509;-58
2021/09/06 21:24:08;;;;;;;3.60;3.03;;;;;;;;;;5028064;28;20536;-58
2021/09/06 21:26:33;;;;;;;11.32;4.65;;;;;;;;;;5029284;28;20427;-57
2021/09/06 21:29:01;;;;;;;5.78;3.30;;;;;;;;;;5028270;28;20029;-58
2021/09/06 21:31:26;;;;;;;5.15;4.13;;;;;;;;;;5029421;28;20029;-58
2021/09/06 21:33:52;;;;;;;5.15;3.03;;;;;;;;;;5027198;28;20116;-58
2021/09/06 21:36:18;;;;;;;4.22;3.35;;;;;;;;;;5028393;28;20037;-58
2021/09/06 21:38:44;;;;;;;5.28;3.60;;;;;;;;;;5028084;28;20029;-56
2021/09/06 21:41:11;;;;;;;6.18;3.65;;;;;;;;;;5028898;28;20043;-59
2021/09/06 21:43:37;;;;;;;4.00;2.75;;;;;;;;;;5027739;28;20029;-57
2021/09/06 21:46:04;;;;;;;3.55;3.00;;;;;;;;;;5027951;28;20509;-59
2021/09/06 21:48:29;;;;;;;5.35;3.50;;;;;;;;;;5027450;28;20372;-57
2021/09/06 21:50:56;;;;;;;5.57;3.35;;;;;;;;;;5026822;28;20037;-57
2021/09/06 21:53:22;;;;;;;4.88;3.15;;;;;;;;;;5028464;28;20382;-59
2021/09/06 21:55:48;;;;;;;5.70;4.13;;;;;;;;;;5028588;28;20034;-58
2021/09/06 21:58:16;;;;;;;4.53;3.22;;;;;;;;;;5025597;28;20037;-57
2021/09/06 22:00:42;;;;;;;18.23;3.53;;;;;;;;;;5027805;28;20044;-58
2021/09/06 22:03:07;;;;;;;4.75;2.72;;;;;;;;;;5023134;28;20037;-58
2021/09/06 22:05:33;;;;;;;5.75;3.60;;;;;;;;;;5026714;28;20140;-58
2021/09/06 22:07:58;;;;;;;4.90;3.03;;;;;;;;;;5025734;28;20030;-59
2021/09/06 22:10:24;;;;;;;4.75;3.38;;;;;;;;;;5027124;28;20018;-59
2021/09/06 22:12:49;;;;;;;4.65;3.22;;;;;;;;;;5027728;28;20033;-59
2021/09/06 22:15:14;;;;;;;5.72;4.50;;;;;;;;;;5027159;28;20050;-59
2021/09/06 22:17:40;;;;;;;5.40;3.60;;;;;;;;;;5028460;28;20052;-59
2021/09/06 22:20:06;;;;;;;6.07;3.97;;;;;;;;;;5027654;28;20490;-59
2021/09/06 22:22:32;;;;;;;5.10;3.65;;;;;;;;;;5028085;28;20037;-59
2021/09/06 22:24:57;;;;;;;5.65;3.95;;;;;;;;;;5028411;28;20033;-59
2021/09/06 22:27:25;;;;;;;4.93;3.72;;;;;;;;;;5027235;28;20029;-59
2021/09/06 22:29:51;;;;;;;5.05;3.22;;;;;;;;;;5028111;28;20112;-59
2021/09/06 22:32:16;;;;;;;4.40;3.22;;;;;;;;;;5028827;28;20038;-59
2021/09/06 22:34:42;;;;;;;5.57;3.95;;;;;;;;;;5027293;28;20485;-57
2021/09/06 22:37:08;;;;;;;4.88;3.85;;;;;;;;;;5028512;28;20099;-57
2021/09/06 22:39:33;;;;;;;5.25;3.88;;;;;;;;;;5027884;28;20431;-57
2021/09/06 22:41:59;;;;;;;5.32;3.58;;;;;;;;;;5028132;28;20040;-57
2021/09/06 22:44:24;;;;;;;5.03;3.33;;;;;;;;;;5028575;28;20029;-57
2021/09/06 22:46:49;;;;;;;4.45;3.20;;;;;;;;;;5028874;28;20439;-57
2021/09/06 22:49:15;;;;;;;5.40;4.05;;;;;;;;;;5028296;28;20028;-57
2021/09/06 22:51:40;;;;;;;6.93;3.67;;;;;;;;;;5027872;28;20084;-57
2021/09/06 22:54:06;;;;;;;3.78;3.10;;;;;;;;;;5028658;28;20104;-57
2021/09/06 22:56:31;;;;;;;5.28;3.92;;;;;;;;;;5028681;28;20362;-57
2021/09/06 22:58:57;;;;;;;3.88;3.03;;;;;;;;;;5028278;28;20495;-57
2021/09/06 23:01:22;;;;;;;5.53;4.03;;;;;;;;;;5028250;28;20091;-57
2021/09/06 23:03:47;;;;;;;4.68;3.40;;;;;;;;;;5027834;28;20033;-57
2021/09/06 23:06:13;;;;;;;10.55;3.67;;;;;;;;;;5028374;28;20063;-57
2021/09/06 23:08:38;;;;;;;5.47;3.35;;;;;;;;;;5028446;28;20053;-57
2021/09/06 23:11:04;;;;;;;4.20;2.85;;;;;;;;;;5028488;28;20044;-57
2021/09/06 23:13:29;;;;;;;6.05;3.80;;;;;;;;;;5028797;28;20094;-57
2021/09/06 23:15:54;;;;;;;5.93;4.18;;;;;;;;;;5027334;28;20049;-58
2021/09/06 23:18:20;;;;;;;4.10;3.03;;;;;;;;;;5028438;28;20029;-58
2021/09/06 23:20:45;;;;;;;5.32;3.65;;;;;;;;;;5024197;28;20033;-58
2021/09/06 23:23:10;;;;;;;4.50;3.40;;;;;;;;;;5028466;28;20045;-58
2021/09/06 23:25:36;;;;;;;4.57;3.25;;;;;;;;;;5028344;28;20029;-58
2021/09/06 23:28:02;;;;;;;6.18;3.13;;;;;;;;;;5027196;28;20521;-58
2021/09/06 23:30:28;;;;;;;3.67;3.08;;;;;;;;;;5027575;28;20414;-58
2021/09/06 23:32:53;;;;;;;6.43;4.32;;;;;;;;;;5028050;28;20037;-57
2021/09/06 23:35:19;;;;;;;8.25;4.43;;;;;;;;;;5026777;28;20382;-57
2021/09/06 23:37:44;;;;;;;6.95;4.13;;;;;;;;;;5030950;28;20036;-57
2021/09/06 23:40:10;;;;;;;5.82;3.72;;;;;;;;;;5031397;28;20048;-58
2021/09/06 23:42:35;;;;;;;4.93;3.95;;;;;;;;;;5032158;28;20025;-58
2021/09/06 23:45:01;;;;;;;5.22;3.30;;;;;;;;;;5030929;28;20434;-58
2021/09/06 23:47:26;;;;;;;4.75;3.60;;;;;;;;;;5031970;28;20029;-59
2021/09/06 23:49:52;;;;;;;4.35;2.97;;;;;;;;;;5031572;28;20506;-58
2021/09/06 23:52:17;;;;;;;6.78;3.28;;;;;;;;;;5031401;28;20371;-58
2021/09/06 23:54:42;;;;;;;3.35;2.72;;;;;;;;;;5031237;28;20057;-58
2021/09/06 23:57:08;;;;;;;6.50;4.35;;;;;;;;;;5031419;28;20052;-59
2021/09/06 23:59:33;;;;;;;10.25;4.75;;;;;;;;;;5031445;28;20480;-59
